Time;durP1;ratioP1;P1;durP2;ratioP2;P2;SDS_P1;SDS_P2;PMS_P1;PMS_P2;Temp;Humidity;BMP_temperature;BMP_pressure;BME280_temperature;BME280_humidity;BME280_pressure;Samples;Min_cycle;Max_cycle;Signal;HPM_P1;HPM_P2
2021/05/27 00:00:21;;;;;;;25.03;20.13;;;10.00;98.90;;;;;;5071961;28;20212;-60
2021/05/27 00:02:47;;;;;;;23.73;18.73;;;10.00;99.30;;;;;;5072525;28;20205;-60
2021/05/27 00:05:14;;;;;;;23.83;17.53;;;10.00;84.70;;;;;;5071773;28;20223;-59
2021/05/27 00:07:40;;;;;;;27.33;21.37;;;10.00;60.70;;;;;;5072352;28;20294;-61
2021/05/27 00:10:09;;;;;;;32.43;21.17;;;10.00;68.90;;;;;;5072544;28;20214;-60
2021/05/27 00:12:36;;;;;;;28.97;21.33;;;10.00;97.00;;;;;;5072189;28;20211;-60
2021/05/27 00:15:03;;;;;;;28.93;19.90;;;10.00;99.90;;;;;;5072419;28;20252;-59
2021/05/27 00:17:29;;;;;;;26.23;21.43;;;10.00;93.00;;;;;;5072226;28;20226;-60
2021/05/27 00:19:55;;;;;;;27.53;20.80;;;10.00;97.00;;;;;;5072613;28;20212;-59
2021/05/27 00:22:22;;;;;;;28.60;22.20;;;10.00;99.90;;;;;;5071895;28;20667;-59
2021/05/27 00:24:48;;;;;;;26.87;20.27;;;10.00;99.90;;;;;;5072240;28;20319;-61
2021/05/27 00:27:14;;;;;;;23.13;18.07;;;10.00;99.50;;;;;;5072150;28;20231;-60
2021/05/27 00:29:41;;;;;;;27.60;20.07;;;10.00;90.60;;;;;;5072783;28;20351;-60
2021/05/27 00:32:07;;;;;;;28.50;19.90;;;10.00;99.90;;;;;;5072489;28;20204;-59
2021/05/27 00:34:34;;;;;;;24.97;20.00;;;10.00;84.70;;;;;;5072466;28;20230;-60
2021/05/27 00:37:00;;;;;;;28.57;21.20;;;10.00;59.80;;;;;;5071677;28;20219;-58
2021/05/27 00:39:26;;;;;;;22.07;18.83;;;10.00;75.60;;;;;;5072279;28;20671;-59
2021/05/27 00:41:53;;;;;;;22.30;18.33;;;10.00;43.00;;;;;;5072245;28;20265;-59
2021/05/27 00:44:21;;;;;;;22.53;17.17;;;9.90;38.90;;;;;;5071628;28;20215;-60
2021/05/27 00:46:48;;;;;;;19.87;16.77;;;10.00;24.60;;;;;;5072281;28;20206;-60
2021/05/27 00:49:14;;;;;;;23.30;16.73;;;10.00;17.50;;;;;;5071822;28;20216;-60
2021/05/27 00:51:40;;;;;;;26.27;16.33;;;10.00;22.60;;;;;;5071683;28;20218;-60
2021/05/27 00:54:07;;;;;;;24.33;17.90;;;10.00;3.90;;;;;;5071425;28;20235;-61
2021/05/27 00:56:33;;;;;;;21.60;17.93;;;10.00;4.80;;;;;;5071836;28;20223;-61
2021/05/27 00:59:00;;;;;;;22.53;17.77;;;10.00;13.60;;;;;;5071571;28;20729;-60
2021/05/27 01:01:26;;;;;;;23.73;18.80;;;10.00;17.90;;;;;;5071853;28;20211;-60
2021/05/27 01:03:53;;;;;;;26.50;18.77;;;10.00;4.00;;;;;;5071842;28;20203;-61
2021/05/27 01:06:19;;;;;;;25.80;20.13;;;10.00;11.70;;;;;;5071806;28;20231;-61
2021/05/27 01:08:45;;;;;;;26.50;20.17;;;10.00;4.00;;;;;;5072128;28;20210;-60
2021/05/27 01:11:12;;;;;;;24.83;19.67;;;10.00;4.00;;;;;;5071554;28;20206;-60
2021/05/27 01:13:38;;;;;;;30.33;19.80;;;10.10;3.10;;;;;;5071771;28;20210;-61
2021/05/27 01:16:04;;;;;;;26.47;19.93;;;10.00;1.00;;;;;;5071398;28;20228;-62
2021/05/27 01:18:30;;;;;;;28.07;19.87;;;10.10;1.00;;;;;;5074000;28;20234;-60
2021/05/27 01:20:58;;;;;;;26.80;19.67;;;10.10;1.00;;;;;;5075597;28;20559;-61
2021/05/27 01:23:27;;;;;;;29.43;21.30;;;10.10;1.00;;;;;;5075609;28;20212;-59
2021/05/27 01:25:54;;;;;;;26.60;19.80;;;10.10;1.00;;;;;;5075192;28;20231;-60
2021/05/27 01:28:22;;;;;;;30.83;21.97;;;10.10;1.00;;;;;;5075330;28;20204;-60
2021/05/27 01:30:49;;;;;;;31.33;23.53;;;10.10;1.00;;;;;;5074986;28;20565;-59
2021/05/27 01:33:17;;;;;;;29.07;22.40;;;10.10;3.80;;;;;;5075073;28;20215;-60
2021/05/27 01:35:44;;;;;;;30.40;23.50;;;10.10;4.40;;;;;;5075009;28;20773;-61
2021/05/27 01:38:12;;;;;;;32.90;24.40;;;10.10;22.00;;;;;;5074909;28;20220;-59
2021/05/27 01:40:40;;;;;;;33.60;21.57;;;10.00;26.40;;;;;;5074772;28;20302;-60
2021/05/27 01:43:06;;;;;;;29.63;21.10;;;10.10;27.40;;;;;;5074839;28;20213;-60
2021/05/27 01:45:32;;;;;;;30.60;23.53;;;10.10;15.20;;;;;;5075029;28;20703;-59
2021/05/27 01:47:59;;;;;;;36.37;24.83;;;10.10;21.50;;;;;;5074845;28;20268;-57
2021/05/27 01:50:25;;;;;;;33.50;25.27;;;10.10;34.70;;;;;;5074808;28;20211;-59
2021/05/27 01:52:55;;;;;;;32.53;24.83;;;10.10;34.80;;;;;;5074869;28;20207;-61
2021/05/27 01:55:21;;;;;;;34.47;23.20;;;10.10;46.90;;;;;;5074366;28;20243;-61
2021/05/27 01:57:48;;;;;;;36.47;23.30;;;10.10;60.30;;;;;;5075016;28;20231;-61
2021/05/27 02:00:15;;;;;;;35.00;24.73;;;10.00;60.70;;;;;;5074175;28;20213;-60
2021/05/27 02:02:41;;;;;;;33.53;22.77;;;10.00;70.50;;;;;;5074734;28;20211;-59
2021/05/27 02:05:08;;;;;;;35.87;24.03;;;10.00;99.90;;;;;;5074385;28;20229;-61
2021/05/27 02:07:34;;;;;;;27.63;20.77;;;10.00;99.90;;;;;;5074368;28;20211;-61
2021/05/27 02:10:00;;;;;;;32.87;24.33;;;10.10;99.90;;;;;;5074226;28;20211;-61
2021/05/27 02:12:26;;;;;;;35.00;24.60;;;10.00;99.90;;;;;;5074557;28;20203;-59
2021/05/27 02:14:53;;;;;;;31.73;24.37;;;10.00;99.90;;;;;;5073889;28;20228;-57
2021/05/27 02:17:19;;;;;;;22.53;18.57;;;10.00;99.90;;;;;;5074355;28;20231;-61
2021/05/27 02:19:46;;;;;;;27.13;21.70;;;10.00;99.90;;;;;;5074346;28;20268;-60
2021/05/27 02:22:12;;;;;;;31.93;21.90;;;10.00;99.90;;;;;;5074133;28;20218;-60
2021/05/27 02:24:38;;;;;;;33.73;21.23;;;10.00;99.90;;;;;;5074055;28;20239;-61
2021/05/27 02:27:04;;;;;;;30.83;22.00;;;9.90;99.90;;;;;;5074160;28;20234;-61
2021/05/27 02:29:30;;;;;;;31.60;23.53;;;9.90;99.90;;;;;;5073542;28;20587;-59
2021/05/27 02:31:57;;;;;;;28.33;22.30;;;9.90;99.90;;;;;;5073703;28;20668;-60
2021/05/27 02:34:24;;;;;;;26.80;21.40;;;9.90;99.90;;;;;;5073872;28;20729;-60
2021/05/27 02:36:50;;;;;;;28.00;21.47;;;9.90;99.90;;;;;;5073566;28;20221;-61
2021/05/27 02:39:16;;;;;;;28.53;22.27;;;9.90;99.90;;;;;;5073751;28;20668;-60
2021/05/27 02:41:43;;;;;;;31.17;22.13;;;9.90;99.90;;;;;;5073495;28;20213;-60
2021/05/27 02:44:09;;;;;;;32.40;22.27;;;9.90;99.90;;;;;;5073561;28;20625;-61
2021/05/27 02:46:35;;;;;;;32.27;22.23;;;9.90;99.90;;;;;;5073556;28;20235;-58
2021/05/27 02:49:02;;;;;;;31.13;22.10;;;9.90;99.90;;;;;;5073867;28;20214;-63
2021/05/27 02:51:29;;;;;;;31.63;21.93;;;9.90;99.90;;;;;;5073129;28;20214;-60
2021/05/27 02:53:55;;;;;;;30.73;22.03;;;9.90;99.90;;;;;;5073239;28;20205;-59
2021/05/27 02:56:21;;;;;;;32.97;21.60;;;9.80;99.90;;;;;;5073103;28;20221;-61
2021/05/27 02:58:47;;;;;;;29.50;21.60;;;9.80;99.90;;;;;;5072868;28;20246;-61
2021/05/27 03:01:13;;;;;;;27.47;20.03;;;9.80;99.90;;;;;;5073253;28;20216;-61
2021/05/27 03:03:39;;;;;;;30.43;21.07;;;9.80;99.90;;;;;;5073199;28;20208;-61
2021/05/27 03:06:06;;;;;;;27.80;19.97;;;9.80;99.90;;;;;;5073205;28;20226;-60
2021/05/27 03:08:32;;;;;;;29.23;20.53;;;9.80;99.90;;;;;;5073039;28;20258;-61
2021/05/27 03:10:59;;;;;;;30.70;21.27;;;9.80;99.90;;;;;;5072792;28;20207;-61
2021/05/27 03:13:25;;;;;;;31.40;22.47;;;9.80;99.90;;;;;;5072749;28;20211;-61
2021/05/27 03:15:52;;;;;;;36.27;21.90;;;9.70;99.90;;;;;;5073101;28;20244;-60
2021/05/27 03:18:18;;;;;;;41.43;24.07;;;9.70;99.90;;;;;;5072759;28;20235;-60
2021/05/27 03:20:45;;;;;;;35.70;23.77;;;9.70;1.00;;;;;;5072577;28;20263;-59
2021/05/27 03:23:14;;;;;;;38.83;24.67;;;9.60;1.00;;;;;;5072815;28;20208;-59
2021/05/27 03:25:40;;;;;;;45.83;25.53;;;9.60;99.90;;;;;;5072413;28;20229;-59
2021/05/27 03:28:07;;;;;;;44.07;27.37;;;9.50;1.00;;;;;;5072802;28;20650;-60
2021/05/27 03:30:33;;;;;;;46.03;25.13;;;9.50;1.00;;;;;;5072368;28;20214;-60
2021/05/27 03:32:59;;;;;;;50.17;30.70;;;9.50;1.00;;;;;;5072777;28;20255;-58
2021/05/27 03:35:26;;;;;;;58.50;30.87;;;9.40;1.00;;;;;;5072287;28;20231;-60
2021/05/27 03:37:52;;;;;;;57.97;32.13;;;9.40;1.00;;;;;;5072434;28;20225;-59
2021/05/27 03:40:19;;;;;;;64.33;31.93;;;9.40;1.00;;;;;;5071322;28;20208;-60
2021/05/27 03:42:47;;;;;;;59.93;31.97;;;9.40;6.70;;;;;;5072484;28;20734;-61
2021/05/27 03:45:16;;;;;;;65.83;32.50;;;9.40;46.40;;;;;;5072259;28;20232;-61
2021/05/27 03:47:42;;;;;;;50.43;28.07;;;9.40;75.40;;;;;;5072441;28;20206;-60
2021/05/27 03:50:11;;;;;;;50.97;29.70;;;9.40;15.10;;;;;;5072094;28;20213;-59
2021/05/27 03:52:38;;;;;;;47.90;28.07;;;9.40;1.00;;;;;;5072236;28;20207;-61
2021/05/27 03:55:05;;;;;;;59.57;28.10;;;9.30;1.00;;;;;;5071940;28;20263;-61
2021/05/27 03:57:33;;;;;;;50.97;27.87;;;9.30;1.00;;;;;;5072115;28;20253;-61
2021/05/27 04:02:45;;;;;;;44.03;26.37;;;9.20;1.00;;;;;;5072108;28;20572;-60
2021/05/27 04:07:56;;;;;;;49.83;27.47;;;9.20;1.00;;;;;;5071990;28;20236;-60
2021/05/27 04:10:23;;;;;;;57.13;27.80;;;9.10;1.00;;;;;;5072011;28;20205;-61
2021/05/27 04:12:50;;;;;;;55.10;29.33;;;9.10;1.00;;;;;;5071932;28;20201;-60
2021/05/27 04:15:22;;;;;;;62.10;30.97;;;9.10;1.00;;;;;;5072323;28;20229;-58
2021/05/27 04:17:53;;;;;;;65.10;31.33;;;9.10;64.50;;;;;;5071865;28;20236;-61
2021/05/27 04:20:20;;;;;;;58.07;31.93;;;9.10;89.30;;;;;;5072125;28;20202;-60
2021/05/27 04:22:47;;;;;;;59.40;31.60;;;9.20;99.90;;;;;;5071907;28;20228;-60
2021/05/27 04:25:15;;;;;;;63.67;31.83;;;9.20;97.00;;;;;;5071991;28;20257;-61
2021/05/27 04:27:42;;;;;;;60.00;29.10;;;9.20;61.40;;;;;;5072016;28;20197;-60
2021/05/27 04:30:14;;;;;;;52.23;26.77;;;9.20;79.00;;;;;;5069404;28;20205;-61
2021/05/27 04:32:54;;;;;;;47.83;24.57;;;9.20;74.60;;;;;;5071594;28;20212;-59
2021/05/27 04:35:21;;;;;;;44.07;24.33;;;9.10;1.00;;;;;;5071433;28;20225;-61
2021/05/27 04:37:47;;;;;;;49.93;25.70;;;9.00;1.00;;;;;;5071452;28;20229;-58
2021/05/27 04:40:14;;;;;;;48.83;25.63;;;9.00;1.00;;;;;;5071383;28;20690;-60
2021/05/27 04:42:41;;;;;;;49.33;25.97;;;9.00;12.90;;;;;;5071573;28;20292;-59
2021/05/27 04:45:09;;;;;;;59.80;29.07;;;9.00;1.00;;;;;;5070665;28;20253;-59
2021/05/27 04:47:36;;;;;;;65.27;30.47;;;9.00;28.70;;;;;;5071760;28;20266;-60
2021/05/27 04:50:02;;;;;;;59.67;30.17;;;9.00;99.90;;;;;;5068691;28;20255;-60
2021/05/27 04:52:28;;;;;;;52.27;29.97;;;9.10;99.90;;;;;;5074304;28;20213;-60
2021/05/27 04:54:55;;;;;;;54.80;30.87;;;9.10;99.90;;;;;;5075244;28;20229;-61
2021/05/27 04:57:21;;;;;;;51.57;29.93;;;9.10;99.90;;;;;;5075429;28;20227;-61
2021/05/27 04:59:47;;;;;;;58.47;27.57;;;9.10;99.90;;;;;;5075595;28;20264;-60
2021/05/27 05:02:14;;;;;;;60.83;29.30;;;9.00;99.90;;;;;;5075518;28;20215;-59
2021/05/27 05:04:40;;;;;;;49.90;27.57;;;9.10;88.50;;;;;;5075586;28;20224;-59
2021/05/27 05:07:06;;;;;;;58.67;28.60;;;9.10;64.90;;;;;;5075208;28;20685;-63
2021/05/27 05:09:32;;;;;;;58.40;27.90;;;9.00;13.20;;;;;;5075822;28;20234;-63
2021/05/27 05:11:58;;;;;;;54.07;29.90;;;9.20;99.90;;;;;;5075236;28;20213;-64
2021/05/27 05:14:24;;;;;;;50.00;28.80;;;9.30;99.90;;;;;;5075681;28;20209;-64
2021/05/27 05:16:51;;;;;;;49.03;28.30;;;9.30;99.90;;;;;;5074987;28;20221;-64
2021/05/27 05:19:18;;;;;;;53.30;27.30;;;9.40;54.00;;;;;;5075347;28;20210;-64
2021/05/27 05:21:44;;;;;;;42.40;25.97;;;9.40;1.00;;;;;;5074905;28;20283;-64
2021/05/27 05:24:10;;;;;;;41.07;24.03;;;9.50;1.00;;;;;;5075108;28;20623;-64
2021/05/27 05:26:36;;;;;;;37.43;22.03;;;9.50;99.90;;;;;;5074834;28;20227;-63
2021/05/27 05:29:03;;;;;;;38.30;22.60;;;9.50;99.90;;;;;;5074958;28;20204;-66
2021/05/27 05:31:29;;;;;;;39.83;22.53;;;9.40;99.90;;;;;;5074702;28;20209;-66
2021/05/27 05:33:55;;;;;;;40.87;22.07;;;9.30;99.90;;;;;;5074849;28;20211;-67
2021/05/27 05:36:22;;;;;;;37.40;21.90;;;9.30;99.90;;;;;;5078753;28;20254;-67
2021/05/27 05:38:49;;;;;;;38.20;21.47;;;9.40;99.90;;;;;;5095330;28;20224;-68
2021/05/27 05:41:15;;;;;;;34.17;20.93;;;9.30;99.90;;;;;;5095287;28;20209;-67
2021/05/27 05:43:41;;;;;;;38.93;22.00;;;9.40;99.90;;;;;;5095211;28;20209;-66
2021/05/27 05:46:07;;;;;;;39.73;22.83;;;9.40;99.90;;;;;;5095197;28;20224;-66
2021/05/27 05:48:35;;;;;;;32.77;20.70;;;9.40;99.90;;;;;;5074086;28;20214;-66
2021/05/27 05:51:01;;;;;;;40.47;22.40;;;9.40;99.90;;;;;;5074528;28;20305;-67
2021/05/27 05:53:28;;;;;;;39.03;23.07;;;9.40;99.90;;;;;;5074787;28;20205;-67
2021/05/27 05:55:54;;;;;;;36.73;23.20;;;9.40;99.90;;;;;;5074390;28;20727;-67
2021/05/27 05:58:21;;;;;;;38.80;22.37;;;9.50;99.90;;;;;;5074407;28;20229;-67
2021/05/27 06:00:47;;;;;;;57.57;26.10;;;9.50;99.90;;;;;;5073921;28;20209;-67
2021/05/27 06:03:14;;;;;;;49.37;24.80;;;9.50;99.90;;;;;;5073602;28;20214;-67
2021/05/27 06:05:40;;;;;;;38.33;22.07;;;9.60;99.90;;;;;;5074001;28;20231;-66
2021/05/27 06:08:07;;;;;;;40.37;21.83;;;9.70;99.90;;;;;;5073620;28;20205;-67
2021/05/27 06:10:33;;;;;;;36.70;22.00;;;9.60;99.90;;;;;;5073744;28;20674;-68
2021/05/27 06:13:00;;;;;;;35.87;22.10;;;9.70;99.90;;;;;;5073775;28;20604;-68
2021/05/27 06:15:28;;;;;;;34.00;21.43;;;9.80;99.90;;;;;;5073824;28;20225;-68
2021/05/27 06:17:54;;;;;;;34.37;20.63;;;9.80;99.90;;;;;;5076457;28;20221;-66
2021/05/27 06:20:22;;;;;;;37.27;21.40;;;9.80;99.90;;;;;;5093858;28;20211;-66
2021/05/27 06:22:48;;;;;;;30.50;18.93;;;9.80;99.90;;;;;;5093716;28;20236;-66
2021/05/27 06:25:15;;;;;;;35.67;22.03;;;9.60;99.90;;;;;;5094025;28;20235;-66
2021/05/27 06:27:42;;;;;;;36.03;20.37;;;9.60;99.90;;;;;;5094399;28;20215;-66
2021/05/27 06:30:09;;;;;;;40.20;22.10;;;9.60;99.90;;;;;;5094227;28;20260;-67
2021/05/27 06:32:37;;;;;;;35.27;21.87;;;9.60;99.90;;;;;;5078450;28;20232;-62
2021/05/27 06:35:03;;;;;;;35.27;21.53;;;9.60;99.90;;;;;;5073705;28;20238;-63
2021/05/27 06:37:29;;;;;;;38.60;22.13;;;9.60;99.90;;;;;;5073253;28;20301;-62
2021/05/27 06:39:56;;;;;;;36.17;21.77;;;9.60;99.90;;;;;;5073082;28;20210;-68
2021/05/27 06:42:22;;;;;;;33.47;21.07;;;9.60;99.90;;;;;;5073553;28;20210;-69
2021/05/27 06:44:49;;;;;;;33.90;21.80;;;9.50;99.90;;;;;;5073338;28;20237;-69
2021/05/27 06:47:15;;;;;;;34.63;21.27;;;9.60;99.90;;;;;;5073146;28;20207;-67
2021/05/27 06:49:41;;;;;;;36.60;23.27;;;9.60;99.90;;;;;;5072944;28;20208;-67
2021/05/27 06:52:08;;;;;;;39.97;24.07;;;9.70;99.90;;;;;;5087159;28;20207;-65
2021/05/27 06:54:35;;;;;;;38.17;22.13;;;9.80;99.90;;;;;;5093220;28;20292;-65
2021/05/27 06:57:01;;;;;;;32.07;21.30;;;9.80;99.90;;;;;;5093135;28;20272;-62
2021/05/27 06:59:28;;;;;;;34.90;21.50;;;9.80;99.90;;;;;;5092968;28;20580;-64
2021/05/27 07:01:55;;;;;;;33.43;19.67;;;9.90;99.90;;;;;;5088163;28;20676;-64
2021/05/27 07:04:21;;;;;;;29.33;19.03;;;9.90;99.90;;;;;;5093287;28;20204;-64
2021/05/27 07:06:47;;;;;;;32.97;20.97;;;10.00;99.90;;;;;;5093118;28;20241;-63
2021/05/27 07:09:14;;;;;;;35.33;20.60;;;9.90;99.90;;;;;;5093055;28;20204;-63
2021/05/27 07:11:40;;;;;;;37.07;20.67;;;9.90;99.90;;;;;;5093353;28;20207;-64
2021/05/27 07:14:06;;;;;;;35.83;20.83;;;9.70;99.90;;;;;;5093863;28;20206;-65
2021/05/27 07:16:33;;;;;;;36.80;21.57;;;9.60;99.90;;;;;;5092993;28;20312;-65
2021/05/27 07:19:00;;;;;;;36.57;22.00;;;9.60;99.90;;;;;;5092462;28;20225;-62
2021/05/27 07:21:26;;;;;;;39.40;23.17;;;9.70;99.90;;;;;;5092749;28;20222;-65
2021/05/27 07:23:52;;;;;;;34.87;22.37;;;9.70;99.90;;;;;;5077895;28;20219;-63
2021/05/27 07:26:18;;;;;;;35.00;23.53;;;9.90;99.90;;;;;;5072217;28;20284;-57
2021/05/27 07:28:44;;;;;;;37.23;23.93;;;9.90;99.90;;;;;;5072210;28;20256;-50
2021/05/27 07:31:11;;;;;;;42.53;23.23;;;9.80;99.90;;;;;;5072035;28;20274;-57
2021/05/27 07:33:37;;;;;;;37.33;22.80;;;9.80;99.90;;;;;;5072086;28;20218;-55
2021/05/27 07:36:05;;;;;;;37.00;22.90;;;9.90;99.90;;;;;;5073939;28;20253;-53
2021/05/27 07:38:32;;;;;;;35.67;22.17;;;9.80;99.90;;;;;;5071780;28;20225;-58
2021/05/27 07:40:58;;;;;;;41.20;22.53;;;9.80;99.90;;;;;;5072111;28;20214;-57
2021/05/27 07:43:24;;;;;;;39.33;22.37;;;9.80;99.90;;;;;;5072080;28;20207;-59
2021/05/27 07:45:51;;;;;;;42.00;23.40;;;9.80;99.90;;;;;;5071823;28;20231;-59
2021/05/27 07:48:17;;;;;;;37.23;22.47;;;9.80;99.90;;;;;;5071484;28;20201;-58
2021/05/27 07:50:43;;;;;;;31.30;20.07;;;9.80;99.90;;;;;;5071881;28;20269;-55
2021/05/27 07:53:15;;;;;;;30.27;18.80;;;9.70;99.90;;;;;;5071923;28;20211;-58
2021/05/27 07:55:42;;;;;;;29.57;19.67;;;9.70;99.90;;;;;;5071702;28;20243;-57
2021/05/27 07:58:08;;;;;;;33.73;19.33;;;9.70;99.90;;;;;;5071766;28;20226;-57
2021/05/27 08:00:34;;;;;;;29.03;19.70;;;9.70;99.90;;;;;;5076757;28;20215;-63
2021/05/27 08:03:00;;;;;;;34.50;19.60;;;9.70;99.90;;;;;;5078080;28;20208;-62
2021/05/27 08:05:27;;;;;;;31.17;18.90;;;9.70;99.90;;;;;;5086240;28;20230;-57
2021/05/27 08:07:53;;;;;;;32.73;20.07;;;9.70;99.90;;;;;;5071532;28;20218;-55
2021/05/27 08:10:20;;;;;;;30.00;18.90;;;9.60;99.90;;;;;;5071722;28;20233;-58
2021/05/27 08:12:46;;;;;;;30.20;18.00;;;9.70;99.90;;;;;;5071656;28;20218;-58
2021/05/27 08:15:13;;;;;;;24.20;16.13;;;9.60;99.90;;;;;;5071543;28;20228;-53
2021/05/27 08:17:39;;;;;;;27.20;16.73;;;9.40;99.90;;;;;;5071021;28;20222;-60
2021/05/27 08:20:07;;;;;;;30.33;18.60;;;9.40;1.00;;;;;;5071520;28;20676;-59
2021/05/27 08:22:33;;;;;;;34.87;19.33;;;9.40;1.00;;;;;;5071431;28;20201;-59
2021/05/27 08:25:00;;;;;;;29.87;18.20;;;9.50;1.00;;;;;;5071339;28;20226;-58
2021/05/27 08:27:26;;;;;;;28.10;16.63;;;9.50;1.00;;;;;;5071059;28;20214;-60
2021/05/27 08:29:53;;;;;;;25.10;16.30;;;9.50;1.00;;;;;;5071161;28;20259;-63
2021/05/27 08:32:19;;;;;;;27.20;16.33;;;9.50;1.00;;;;;;5072199;28;20263;-59
2021/05/27 08:34:45;;;;;;;25.87;15.77;;;9.40;1.00;;;;;;5091695;28;20228;-59
2021/05/27 08:37:11;;;;;;;27.40;15.67;;;9.40;1.00;;;;;;5091570;28;20637;-64
2021/05/27 08:39:37;;;;;;;28.13;15.63;;;9.40;1.00;;;;;;5091663;28;20616;-62
2021/05/27 08:42:04;;;;;;;21.53;13.73;;;9.40;1.00;;;;;;5091528;28;20700;-62
2021/05/27 08:44:34;;;;;;;22.00;13.60;;;9.40;1.00;;;;;;5091294;28;20204;-63
2021/05/27 08:47:00;;;;;;;25.97;14.70;;;9.40;1.00;;;;;;5091677;28;20211;-57
2021/05/27 08:49:28;;;;;;;24.57;14.20;;;9.30;1.00;;;;;;5091723;28;20216;-58
2021/05/27 08:51:55;;;;;;;29.43;16.20;;;9.40;1.00;;;;;;5091205;28;20581;-60
2021/05/27 08:54:21;;;;;;;30.37;16.03;;;9.40;1.00;;;;;;5091721;28;20215;-58
2021/05/27 08:56:47;;;;;;;23.17;16.33;;;9.40;19.40;;;;;;5077786;28;20208;-59
2021/05/27 08:59:13;;;;;;;30.70;17.80;;;9.40;68.20;;;;;;5071272;28;20235;-62
2021/05/27 09:02:01;;;;;;;29.23;17.30;;;9.40;8.10;;;;;;5071268;28;20214;-53
2021/05/27 09:04:28;;;;;;;29.60;17.70;;;9.50;25.80;;;;;;5071976;28;20213;-62
2021/05/27 09:06:54;;;;;;;37.23;19.60;;;9.50;1.00;;;;;;5071751;28;20206;-63
2021/05/27 09:09:20;;;;;;;29.13;18.53;;;9.50;26.70;;;;;;5071294;28;20201;-62
2021/05/27 09:11:46;;;;;;;31.47;17.80;;;9.50;40.70;;;;;;5071090;28;20271;-64
2021/05/27 09:14:13;;;;;;;31.20;18.90;;;9.50;1.00;;;;;;5071124;28;20295;-64
2021/05/27 09:16:56;;;;;;;25.23;16.40;;;9.60;9.30;;;;;;5071463;28;20226;-64
2021/05/27 09:19:23;;;;;;;25.97;16.60;;;9.60;1.00;;;;;;5070796;28;20319;-59
2021/05/27 09:21:50;;;;;;;29.33;17.43;;;9.60;1.00;;;;;;5070868;28;20284;-61
2021/05/27 09:24:16;;;;;;;27.80;17.50;;;9.60;1.00;;;;;;5069911;28;20686;-58
2021/05/27 09:26:53;;;;;;;27.17;17.40;;;9.50;1.00;;;;;;5071237;28;20207;-56
2021/05/27 09:29:20;;;;;;;32.20;18.40;;;9.60;1.00;;;;;;5070802;28;20201;-59
2021/05/27 09:32:01;;;;;;;25.03;15.40;;;9.70;1.00;;;;;;5070971;28;20257;-59
2021/05/27 09:34:44;;;;;;;33.97;18.87;;;9.60;1.00;;;;;;5070671;28;20683;-62
2021/05/27 09:37:22;;;;;;;30.33;19.47;;;9.70;1.00;;;;;;5070361;28;20610;-63
2021/05/27 09:39:51;;;;;;;29.00;18.60;;;9.70;1.00;;;;;;5073883;28;20208;-65
2021/05/27 09:42:17;;;;;;;33.03;18.47;;;9.70;1.00;;;;;;5074364;28;20287;-64
2021/05/27 09:44:43;;;;;;;27.20;18.37;;;9.70;1.00;;;;;;5074395;28;20228;-65
2021/05/27 09:47:10;;;;;;;31.90;19.30;;;9.80;1.00;;;;;;5073903;28;20219;-63
2021/05/27 09:49:36;;;;;;;28.37;18.30;;;9.80;67.50;;;;;;5074414;28;20211;-64
2021/05/27 09:52:18;;;;;;;27.33;17.60;;;9.90;99.90;;;;;;5074138;28;20207;-63
2021/05/27 09:54:53;;;;;;;27.13;16.60;;;10.00;1.00;;;;;;5074300;28;20229;-52
2021/05/27 09:57:23;;;;;;;30.97;16.83;;;10.10;1.00;;;;;;5073801;28;20212;-54
2021/05/27 09:59:50;;;;;;;25.70;18.07;;;10.10;99.90;;;;;;5074260;28;20212;-58
2021/05/27 10:02:17;;;;;;;25.70;17.57;;;10.00;99.90;;;;;;5074173;28;20624;-55
2021/05/27 10:05:08;;;;;;;28.20;18.00;;;9.90;99.90;;;;;;5074069;28;20231;-56
2021/05/27 10:07:40;;;;;;;25.90;17.03;;;10.00;99.90;;;;;;5069750;28;20210;-64
2021/05/27 10:10:08;;;;;;;24.13;16.57;;;10.00;99.90;;;;;;5075082;28;20212;-59
2021/05/27 10:12:39;;;;;;;22.30;13.63;;;10.00;99.90;;;;;;5075354;28;20205;-61
2021/05/27 10:15:07;;;;;;;22.40;15.17;;;9.90;99.90;;;;;;5074323;28;20238;-60
2021/05/27 10:17:33;;;;;;;18.93;14.23;;;9.90;99.90;;;;;;5073502;28;20598;-57
2021/05/27 10:19:59;;;;;;;17.63;12.03;;;9.90;99.90;;;;;;5073769;28;20220;-57
2021/05/27 10:22:26;;;;;;;21.90;14.73;;;9.80;99.90;;;;;;5073560;28;20211;-60
2021/05/27 10:24:54;;;;;;;23.37;15.17;;;9.80;99.90;;;;;;5075637;28;20774;-62
2021/05/27 10:27:20;;;;;;;22.10;14.53;;;10.00;99.90;;;;;;5076098;28;20215;-62
2021/05/27 10:29:46;;;;;;;22.67;14.73;;;10.00;99.90;;;;;;5074165;28;20208;-64
2021/05/27 10:32:15;;;;;;;15.70;12.97;;;10.10;99.90;;;;;;5074127;28;20277;-60
2021/05/27 10:34:46;;;;;;;14.77;11.03;;;10.20;99.90;;;;;;5073531;28;20256;-62
2021/05/27 10:37:14;;;;;;;16.23;12.17;;;10.30;99.90;;;;;;5072986;28;20238;-61
2021/05/27 10:39:40;;;;;;;16.93;11.87;;;10.30;99.90;;;;;;5073412;28;20236;-62
2021/05/27 10:42:08;;;;;;;16.60;12.43;;;10.30;99.90;;;;;;5073223;28;20594;-63
2021/05/27 10:44:35;;;;;;;15.60;11.60;;;10.30;99.90;;;;;;5073843;28;20212;-63
2021/05/27 10:47:12;;;;;;;18.70;12.77;;;10.30;99.90;;;;;;5074152;28;20238;-58
2021/05/27 10:49:52;;;;;;;21.93;13.27;;;10.30;99.90;;;;;;5073594;28;21066;-57
2021/05/27 10:52:35;;;;;;;17.53;13.80;;;10.30;99.90;;;;;;5073327;28;20242;-58
2021/05/27 10:55:03;;;;;;;20.40;14.00;;;10.20;99.90;;;;;;5073023;28;20239;-59
2021/05/27 10:57:49;;;;;;;22.03;15.53;;;10.20;99.90;;;;;;5072895;28;20285;-65
2021/05/27 11:00:48;;;;;;;20.37;14.20;;;10.30;99.90;;;;;;5072772;28;20635;-64
2021/05/27 11:03:40;;;;;;;17.67;13.23;;;10.50;99.90;;;;;;5073694;28;20214;-63
2021/05/27 11:06:27;;;;;;;20.47;13.10;;;10.60;99.90;;;;;;5073289;28;20263;-63
2021/05/27 11:09:31;;;;;;;18.80;12.60;;;10.90;99.90;;;;;;5073079;28;20257;-63
2021/05/27 11:12:09;;;;;;;17.70;12.77;;;10.90;93.00;;;;;;5073013;28;20205;-65
2021/05/27 11:14:39;;;;;;;20.90;14.10;;;10.80;99.20;;;;;;5072514;28;20231;-64
2021/05/27 11:17:26;;;;;;;20.50;13.60;;;10.70;99.90;;;;;;5072806;28;20245;-66
2021/05/27 11:19:55;;;;;;;21.17;13.20;;;10.60;80.00;;;;;;5072797;28;20212;-64
2021/05/27 11:22:48;;;;;;;20.93;13.53;;;10.60;99.90;;;;;;5072499;28;20575;-61
2021/05/27 11:25:30;;;;;;;18.20;13.33;;;10.60;99.90;;;;;;5072380;28;20704;-60
2021/05/27 11:27:57;;;;;;;18.53;13.60;;;10.50;99.90;;;;;;5072334;28;20240;-60
2021/05/27 11:30:26;;;;;;;18.63;12.80;;;10.50;99.90;;;;;;5072069;28;20209;-62
2021/05/27 11:32:54;;;;;;;20.70;13.43;;;10.60;99.90;;;;;;5072314;28;20205;-61
2021/05/27 11:35:23;;;;;;;20.33;13.23;;;10.60;99.90;;;;;;5071920;28;20232;-62
2021/05/27 11:37:50;;;;;;;19.63;11.90;;;10.70;99.90;;;;;;5072038;28;20221;-61
2021/05/27 11:40:17;;;;;;;18.80;12.50;;;10.50;86.60;;;;;;5072060;28;20205;-61
2021/05/27 11:42:48;;;;;;;16.97;12.60;;;10.60;99.90;;;;;;5072328;28;20628;-62
2021/05/27 11:45:14;;;;;;;17.43;11.57;;;10.60;99.90;;;;;;5071864;28;20596;-61
2021/05/27 11:47:41;;;;;;;18.93;11.13;;;10.60;99.90;;;;;;5073034;28;20204;-62
2021/05/27 11:50:11;;;;;;;19.83;12.77;;;10.40;99.90;;;;;;5071861;28;20218;-63
2021/05/27 11:52:37;;;;;;;19.37;13.63;;;10.40;99.90;;;;;;5072077;28;20212;-65
2021/05/27 11:55:04;;;;;;;19.73;13.57;;;10.40;99.90;;;;;;5071824;28;20239;-65
2021/05/27 11:57:40;;;;;;;21.93;13.13;;;10.40;99.90;;;;;;5071612;28;20215;-69
2021/05/27 12:00:08;;;;;;;21.97;13.77;;;10.40;99.90;;;;;;5071592;28;20212;-65
2021/05/27 12:02:42;;;;;;;22.83;13.60;;;10.40;99.90;;;;;;5071029;28;20631;-64
2021/05/27 12:05:22;;;;;;;21.13;13.93;;;10.40;99.90;;;;;;5072188;28;20754;-61
2021/05/27 12:08:02;;;;;;;20.83;13.23;;;10.40;99.90;;;;;;5071856;28;20287;-63
2021/05/27 12:10:31;;;;;;;18.47;13.07;;;10.50;99.90;;;;;;5071709;28;20254;-59
2021/05/27 12:12:58;;;;;;;23.03;14.87;;;10.50;99.90;;;;;;5071410;28;20211;-58
2021/05/27 12:15:26;;;;;;;25.97;15.00;;;10.60;99.90;;;;;;5071546;28;20754;-59
2021/05/27 12:17:57;;;;;;;21.50;14.60;;;10.70;99.90;;;;;;5071487;28;20634;-57
2021/05/27 12:20:29;;;;;;;24.03;14.13;;;10.60;99.90;;;;;;5071685;28;20295;-63
2021/05/27 12:22:59;;;;;;;24.93;13.77;;;10.60;99.90;;;;;;5071864;28;20205;-62
2021/05/27 12:25:27;;;;;;;21.40;13.80;;;10.60;99.90;;;;;;5071430;28;20277;-61
2021/05/27 12:27:56;;;;;;;24.07;15.03;;;10.50;99.90;;;;;;5071441;28;20208;-65
2021/05/27 12:30:24;;;;;;;21.80;16.13;;;10.60;99.90;;;;;;5071786;28;20201;-60
2021/05/27 12:32:52;;;;;;;25.60;17.53;;;10.50;99.90;;;;;;5071873;28;20679;-60
2021/05/27 12:35:25;;;;;;;29.33;18.77;;;10.50;99.90;;;;;;5071715;28;20232;-59
2021/05/27 12:37:54;;;;;;;25.60;17.57;;;10.60;99.90;;;;;;5071551;28;20591;-62
2021/05/27 12:40:25;;;;;;;28.23;18.13;;;10.50;99.90;;;;;;5071587;28;20208;-59
2021/05/27 12:42:52;;;;;;;28.33;16.90;;;10.50;99.90;;;;;;5071907;28;20212;-60
2021/05/27 12:45:30;;;;;;;22.73;17.00;;;10.60;99.90;;;;;;5071297;28;20720;-62